AXCGGARGarmin  id=247  GPS 72 Software Version 2.50|2140330771
HFDTE141210
HFPLTPilot:UNREGISTERED
HFTZOTimezone:1
HFSITSite:
HPGTYGliderType:
HPGIDGliderID:
HFDTM100DATUM:WGS-1984
HFCIDCOMPETITIONID:
HFCCLCOMPETITIONCLASS:
LXCG     ICON:C:\Program Files\CompeGPS\symbols\IconsPlay\cronos.ico
LXCG     COLOR:000119000
I00
B1539543737988N00049464WA0000000165
B1540003737993N00049459WA0000000165
B1540063737998N00049456WA0000000165
B1540123738012N00049488WA0000000165
B1540183738032N00049499WA0000000165
B1540243738022N00049493WA0000000171
B1540303738029N00049499WA0000000175
B1540363738010N00049492WA0000000180
B1540423737993N00049482WA0000000182
B1540483738006N00049484WA0000000182
B1540543738023N00049513WA0000000186
B1541003738038N00049541WA0000000191
B1541063738051N00049547WA0000000193
B1541123738039N00049531WA0000000196
B1541183738024N00049519WA0000000198
B1541243738015N00049504WA0000000199
B1541303737998N00049497WA0000000202
B1541363737988N00049489WA0000000203
B1541423737995N00049483WA0000000202
B1541483738018N00049497WA0000000201
B1541543738037N00049509WA0000000209
B1542003738050N00049510WA0000000213
B1542063738036N00049505WA0000000216
B1542113738022N00049498WA0000000214
B1542173738022N00049484WA0000000214
B1542233738038N00049488WA0000000212
B1542293738058N00049505WA0000000211
B1542353738074N00049506WA0000000211
B1542413738083N00049493WA0000000209
B1542473738106N00049502WA0000000212
B1542533738127N00049518WA0000000210
B1542593738148N00049544WA0000000211
B1543053738169N00049556WA0000000214
B1543113738192N00049572WA0000000217
B1543173738214N00049588WA0000000214
B1543233738206N00049581WA0000000214
B1543293738189N00049580WA0000000216
B1543353738171N00049582WA0000000220
B1543413738152N00049582WA0000000226
B1543473738144N00049574WA0000000231
B1543533738147N00049565WA0000000234
B1543593738148N00049554WA0000000237
B1544053738150N00049543WA0000000242
B1544113738149N00049533WA0000000243
B1544173738143N00049519WA0000000245
B1544233738141N00049509WA0000000246
B1544293738139N00049500WA0000000247
B1544353738143N00049489WA0000000247
B1544413738145N00049479WA0000000247
B1544473738148N00049469WA0000000247
B1544533738151N00049458WA0000000246
B1544593738161N00049455WA0000000245
B1545053738172N00049451WA0000000244
B1545113738185N00049447WA0000000245
B1545173738199N00049438WA0000000245
B1545233738212N00049434WA0000000247
B1545293738227N00049436WA0000000248
B1545353738244N00049439WA0000000249
B1545413738256N00049432WA0000000248
B1545473738264N00049423WA0000000246
B1545533738275N00049416WA0000000245
B1545593738292N00049418WA0000000244
B1546053738304N00049416WA0000000243
B1546113738292N00049407WA0000000241
B1546173738265N00049425WA0000000239
B1546233738241N00049440WA0000000240
B1546293738228N00049433WA0000000239
B1546353738239N00049429WA0000000239
B1546413738253N00049429WA0000000237
B1546473738242N00049421WA0000000235
B1546533738217N00049437WA0000000234
B1546593738192N00049448WA0000000233
B1547053738168N00049453WA0000000232
B1547113738144N00049465WA0000000232
B1547173738123N00049466WA0000000231
B1547233738128N00049459WA0000000231
B1547293738146N00049481WA0000000229
B1547353738157N00049524WA0000000230
B1547413738173N00049546WA0000000231
B1547473738188N00049543WA0000000236
B1547533738190N00049535WA0000000236
B1547593738175N00049532WA0000000239
B1548053738160N00049527WA0000000240
B1548113738140N00049521WA0000000239
B1548173738137N00049511WA0000000239
B1548233738137N00049500WA0000000239
B1548293738140N00049488WA0000000239
B1548353738147N00049480WA0000000237
B1548413738150N00049468WA0000000237
B1548473738153N00049459WA0000000235
B1548533738163N00049450WA0000000236
B1548593738176N00049449WA0000000231
B1549053738190N00049452WA0000000230
B1549113738204N00049452WA0000000229
B1549173738218N00049450WA0000000229
B1549233738234N00049455WA0000000228
B1549293738251N00049460WA0000000226
B1549353738249N00049447WA0000000224
B1549413738239N00049436WA0000000221
B1549473738221N00049430WA0000000219
B1549533738196N00049459WA0000000217
B1549593738173N00049493WA0000000216
B1550053738154N00049526WA0000000220
B1550113738129N00049539WA0000000220
B1550173738123N00049528WA0000000217
B1550233738139N00049529WA0000000217
B1550293738159N00049536WA0000000219
B1550353738181N00049555WA0000000220
B1550413738200N00049576WA0000000221
B1550473738213N00049575WA0000000219
B1550533738195N00049569WA0000000218
B1550593738169N00049577WA0000000223
B1551053738147N00049579WA0000000225
B1551113738134N00049570WA0000000227
B1551173738135N00049555WA0000000231
B1551233738138N00049540WA0000000233
B1551293738143N00049525WA0000000236
B1551353738152N00049515WA0000000237
B1551413738167N00049519WA0000000239
B1551473738179N00049515WA0000000239
B1551533738166N00049508WA0000000239
B1551593738141N00049520WA0000000243
B1552053738119N00049519WA0000000246
B1552113738121N00049507WA0000000249
B1552173738139N00049525WA0000000248
B1552233738148N00049566WA0000000247
B1552293738167N00049584WA0000000248
B1552353738169N00049576WA0000000248
B1552413738161N00049569WA0000000249
B1552473738153N00049560WA0000000251
B1552533738136N00049558WA0000000251
B1552593738117N00049558WA0000000252
B1553053738105N00049551WA0000000252
B1553113738113N00049547WA0000000252
B1553173738117N00049540WA0000000250
B1553233738101N00049534WA0000000248
B1553293738091N00049527WA0000000247
B1553353738079N00049517WA0000000246
B1553413738066N00049508WA0000000246
B1553473738060N00049498WA0000000245
B1553533738044N00049493WA0000000245
B1553593738026N00049487WA0000000243
B1554053738014N00049475WA0000000242
B1554113738001N00049463WA0000000242
B1554173737983N00049460WA0000000242
B1554233737967N00049453WA0000000243
B1554293737955N00049445WA0000000240
B1554353737968N00049441WA0000000238
B1554413737983N00049458WA0000000236
B1554473738001N00049480WA0000000235
B1554533738019N00049496WA0000000236
B1554593738034N00049523WA0000000236
B1555053738044N00049525WA0000000236
B1555113738031N00049515WA0000000239
B1555173738030N00049506WA0000000239
B1555233738037N00049499WA0000000239
B1555293738043N00049489WA0000000239
B1555353738049N00049485WA0000000241
B1555413738046N00049475WA0000000240
B1555473738031N00049467WA0000000241
B1555533738036N00049459WA0000000240
B1555593738049N00049460WA0000000240
B1556053738063N00049458WA0000000239
B1556113738076N00049455WA0000000239
B1556173738086N00049453WA0000000239
B1556233738098N00049449WA0000000236
B1556293738107N00049441WA0000000239
B1556353738119N00049438WA0000000239
B1556413738118N00049429WA0000000240
B1556473738109N00049416WA0000000241
B1556533738119N00049415WA0000000241
B1556593738125N00049410WA0000000240
B1557053738130N00049403WA0000000238
B1557113738135N00049399WA0000000239
B1557173738139N00049393WA0000000239
B1557233738144N00049388WA0000000241
B1557293738147N00049378WA0000000239
B1557353738144N00049366WA0000000237
B1557413738145N00049354WA0000000235
B1557473738150N00049342WA0000000233
B1557533738157N00049332WA0000000232
B1557593738166N00049324WA0000000230
B1558053738174N00049317WA0000000228
B1558113738191N00049336WA0000000225
B1558173738193N00049384WA0000000222
B1558233738182N00049435WA0000000225
B1558293738183N00049478WA0000000227
B1558353738197N00049492WA0000000229
B1558413738178N00049491WA0000000230
B1558473738151N00049509WA0000000235
B1558533738136N00049502WA0000000240
B1558593738133N00049493WA0000000242
B1559053738129N00049483WA0000000241
B1559113738130N00049471WA0000000245
B1559173738131N00049463WA0000000248
B1559233738134N00049458WA0000000251
B1559293738138N00049454WA0000000251
B1559353738141N00049449WA0000000253
B1559413738141N00049442WA0000000254
B1559473738138N00049433WA0000000254
B1559533738134N00049421WA0000000253
B1559593738141N00049411WA0000000253
B1600053738153N00049406WA0000000252
B1600113738168N00049403WA0000000252
B1600173738181N00049406WA0000000253
B1600233738200N00049415WA0000000253
B1600293738214N00049425WA0000000255
B1600353738222N00049420WA0000000255
B1600413738223N00049409WA0000000257
B1600473738215N00049398WA0000000258
B1600533738220N00049389WA0000000255
B1600593738227N00049385WA0000000253
B1601053738235N00049379WA0000000251
B1601113738240N00049368WA0000000250
B1601173738241N00049357WA0000000247
B1601233738245N00049345WA0000000246
B1601293738250N00049334WA0000000244
B1601353738255N00049323WA0000000242
B1601413738258N00049311WA0000000241
B1601473738260N00049300WA0000000238
B1601533738264N00049289WA0000000234
B1601593738267N00049278WA0000000232
B1602053738269N00049267WA0000000230
B1602113738255N00049256WA0000000228
B1602173738225N00049272WA0000000228
B1602233738201N00049301WA0000000228
B1602293738177N00049336WA0000000226
B1602353738161N00049381WA0000000224
B1602413738146N00049429WA0000000221
B1602473738140N00049477WA0000000223
B1602533738151N00049512WA0000000229
B1602593738163N00049544WA0000000235
B1603053738178N00049573WA0000000238
B1603113738181N00049571WA0000000242
B1603173738155N00049574WA0000000247
B1603233738150N00049565WA0000000253
B1603293738153N00049556WA0000000261
B1603353738158N00049549WA0000000265
B1603413738165N00049544WA0000000270
B1603473738169N00049538WA0000000274
B1603533738174N00049535WA0000000276
B1603593738182N00049534WA0000000276
B1604053738193N00049530WA0000000278
B1604113738201N00049523WA0000000280
B1604173738192N00049517WA0000000281
B1604233738171N00049518WA0000000281
B1604293738156N00049514WA0000000282
B1604353738147N00049506WA0000000283
B1604413738134N00049502WA0000000285
B1604473738115N00049499WA0000000285
B1604533738097N00049496WA0000000285
B1604593738089N00049486WA0000000285
B1605053738088N00049477WA0000000284
B1605113738087N00049469WA0000000285
B1605173738081N00049461WA0000000287
B1605233738071N00049453WA0000000287
B1605293738046N00049455WA0000000287
B1605353738025N00049452WA0000000286
B1605413738004N00049447WA0000000286
B1605473737980N00049445WA0000000286
B1605533737974N00049435WA0000000286
B1605593737975N00049425WA0000000284
B1606053737978N00049411WA0000000284
B1606113737982N00049400WA0000000283
B1606173737988N00049386WA0000000282
B1606233737998N00049374WA0000000284
B1606293738004N00049364WA0000000285
B1606353738005N00049351WA0000000285
B1606413738005N00049337WA0000000282
B1606473738008N00049324WA0000000279
B1606533738012N00049312WA0000000280
B1606593738015N00049301WA0000000276
B1607053738017N00049287WA0000000272
B1607113738021N00049264WA0000000269
B1607173738027N00049252WA0000000264
B1607233738036N00049244WA0000000259
B1607293738045N00049237WA0000000255
B1607353738055N00049229WA0000000251
B1607413738065N00049222WA0000000247
B1607473738077N00049221WA0000000242
B1607533738096N00049246WA0000000238
B1607593738111N00049281WA0000000235
B1608053738125N00049317WA0000000233
B1608113738134N00049361WA0000000230
B1608173738139N00049408WA0000000229
B1608233738145N00049454WA0000000230
B1608293738154N00049497WA0000000233
B1608353738165N00049538WA0000000239
B1608413738180N00049554WA0000000246
B1608473738183N00049554WA0000000252
B1608533738165N00049553WA0000000256
B1608593738143N00049555WA0000000258
B1609053738142N00049551WA0000000262
B1609113738148N00049553WA0000000266
B1609173738151N00049553WA0000000269
B1609233738152N00049552WA0000000273
B1609293738153N00049551WA0000000277
B1609353738154N00049549WA0000000281
B1609413738156N00049547WA0000000283
B1609473738158N00049544WA0000000285
B1609533738159N00049536WA0000000288
B1609593738161N00049529WA0000000290
B1610053738163N00049521WA0000000294
B1610113738167N00049514WA0000000295
B1610173738169N00049505WA0000000298
B1610233738171N00049496WA0000000298
B1610293738173N00049483WA0000000300
B1610353738174N00049473WA0000000301
B1610413738174N00049467WA0000000303
B1610473738179N00049460WA0000000303
B1610533738183N00049455WA0000000304
B1610593738189N00049448WA0000000305
B1611053738193N00049443WA0000000307
B1611113738198N00049437WA0000000305
B1611173738207N00049431WA0000000303
B1611233738216N00049430WA0000000304
B1611293738222N00049422WA0000000303
B1611353738225N00049411WA0000000304
B1611413738229N00049399WA0000000303
B1611473738234N00049388WA0000000301
B1611533738237N00049375WA0000000300
B1611593738241N00049363WA0000000296
B1612053738245N00049350WA0000000290
B1612113738248N00049336WA0000000284
B1612173738249N00049325WA0000000280
B1612233738250N00049313WA0000000276
B1612293738252N00049301WA0000000273
B1612353738256N00049290WA0000000269
B1612413738257N00049277WA0000000264
B1612473738259N00049264WA0000000256
B1612533738261N00049249WA0000000250
B1612593738262N00049235WA0000000243
B1613053738264N00049221WA0000000238
B1613113738262N00049209WA0000000236
B1613173738238N00049213WA0000000227
B1613233738212N00049254WA0000000216
B1613293738198N00049301WA0000000213
B1613353738188N00049352WA0000000207
B1613413738177N00049405WA0000000207
B1613473738162N00049454WA0000000206
B1613533738155N00049503WA0000000206
B1613593738168N00049541WA0000000210
B1614053738185N00049560WA0000000217
B1614113738201N00049569WA0000000225
B1614173738187N00049567WA0000000228
B1614233738159N00049572WA0000000234
B1614293738141N00049570WA0000000240
B1614353738141N00049562WA0000000245
B1614413738139N00049559WA0000000248
B1614473738115N00049566WA0000000253
B1614533738090N00049571WA0000000254
B1614593738075N00049564WA0000000255
B1615053738071N00049559WA0000000256
B1615113738083N00049561WA0000000255
B1615173738095N00049562WA0000000255
B1615233738102N00049560WA0000000260
B1615293738108N00049554WA0000000263
B1615353738113N00049548WA0000000264
B1615413738106N00049541WA0000000264
B1615473738101N00049528WA0000000266
B1615533738094N00049519WA0000000268
B1615593738079N00049507WA0000000267
B1616053738070N00049497WA0000000269
B1616113738064N00049487WA0000000268
B1616173738062N00049475WA0000000272
B1616233738061N00049466WA0000000273
B1616293738060N00049451WA0000000274
B1616353738062N00049437WA0000000275
B1616413738065N00049425WA0000000274
B1616473738070N00049414WA0000000273
B1616533738075N00049403WA0000000272
B1616593738074N00049390WA0000000271
B1617053738068N00049374WA0000000268
B1617113738063N00049360WA0000000268
B1617173738065N00049350WA0000000266
B1617233738062N00049336WA0000000262
B1617293738061N00049321WA0000000260
B1617353738057N00049306WA0000000255
B1617413738053N00049292WA0000000250
B1617473738052N00049277WA0000000247
B1617533738050N00049261WA0000000244
B1617593738050N00049246WA0000000237
B1618053738050N00049232WA0000000233
B1618113738052N00049218WA0000000228
B1618173738050N00049202WA0000000225
B1618233738047N00049185WA0000000219
B1618293738045N00049168WA0000000214
B1618353738043N00049152WA0000000208
B1618413738043N00049137WA0000000202
B1618473738043N00049122WA0000000196
B1618533738041N00049107WA0000000191
B1618593738035N00049092WA0000000185
B1619053738028N00049076WA0000000180
B1619113738020N00049062WA0000000174
B1619173738021N00049052WA0000000163
B1619233738036N00049088WA0000000158
B1619293738038N00049139WA0000000153
B1619353738044N00049185WA0000000146
B1619413738051N00049230WA0000000138
B1619473738053N00049276WA0000000135
B1619533738047N00049320WA0000000131
B1619593738048N00049365WA0000000132
B1620053738063N00049387WA0000000129
B1620113738064N00049377WA0000000126
B1620173738050N00049362WA0000000124
B1620233738031N00049351WA0000000124
B1620293738011N00049341WA0000000122
B1620353738011N00049329WA0000000117
B1620413738026N00049330WA0000000119
B1620473738030N00049319WA0000000115
B1620533738046N00049327WA0000000110
B1620593738064N00049345WA0000000105
B1621053738084N00049360WA0000000103
B1621113738101N00049371WA0000000100
B1621173738117N00049376WA0000000097
B1621233738112N00049361WA0000000090
B1621293738102N00049347WA0000000084
B1621353738108N00049333WA0000000079
B1621413738110N00049325WA0000000079
LXCG     VERSION:5.7
GAA23DE955230A6754069D714844DB4A883602539B4D9CB1216310FC496950EA643AF8
GC9272B2299C52425E8A776FE066A04D20BC1AF0769A116B78127AFA4D54AF29290B
GE4850E10D071E943D7E6170F949391F55883A0A72965F5633E29FA3DFEA64367A29
G05E6EB2D165B9E6700A46E1A532241ED2FB3BDCC640F30C6260D3F0BD4F37